createdAt,value
2017-08-16T00:00:24.474Z,91.30
2017-08-16T00:02:52.870Z,91.30
2017-08-16T00:05:20.681Z,91.30
2017-08-16T00:07:48.390Z,91.30
2017-08-16T00:10:16.051Z,91.00
2017-08-16T00:12:43.742Z,91.10
2017-08-16T00:15:11.540Z,91.20
2017-08-16T00:17:39.221Z,91.30
2017-08-16T00:20:06.955Z,91.70
2017-08-16T00:22:34.589Z,91.40
2017-08-16T00:25:02.227Z,91.50
2017-08-16T00:27:29.858Z,91.50
2017-08-16T00:29:57.488Z,91.50
2017-08-16T00:32:25.143Z,91.40
2017-08-16T00:34:52.808Z,91.50
2017-08-16T00:37:21.192Z,91.90
2017-08-16T00:39:48.820Z,91.90
2017-08-16T00:42:16.452Z,92.20
2017-08-16T00:44:44.112Z,92.10
2017-08-16T00:47:11.851Z,92.10
2017-08-16T00:49:39.547Z,92.30
2017-08-16T00:52:07.219Z,92.00
2017-08-16T00:54:34.914Z,91.80
2017-08-16T00:57:02.643Z,92.00
2017-08-16T00:59:30.266Z,92.10
2017-08-16T01:01:58.639Z,92.10
2017-08-16T01:04:26.322Z,92.00
2017-08-16T01:06:53.964Z,92.30
2017-08-16T01:09:21.670Z,92.60
2017-08-16T01:11:49.343Z,92.90
2017-08-16T01:14:16.978Z,93.30
2017-08-16T01:16:44.648Z,92.90
2017-08-16T01:19:12.279Z,92.60
2017-08-16T01:21:39.971Z,92.60
2017-08-16T01:24:07.604Z,92.50
2017-08-16T01:26:35.280Z,92.50
2017-08-16T01:29:02.933Z,93.20
2017-08-16T01:31:30.585Z,92.70
2017-08-16T01:33:58.267Z,92.60
2017-08-16T01:36:25.983Z,92.40
2017-08-16T01:38:53.668Z,92.70
2017-08-16T01:41:22.114Z,93.70
2017-08-16T01:43:49.814Z,93.70
2017-08-16T01:46:18.231Z,94.60
2017-08-16T01:48:45.844Z,94.30
2017-08-16T01:51:13.513Z,94.20
2017-08-16T01:53:41.185Z,94.60
2017-08-16T01:56:08.829Z,94.30
2017-08-16T01:58:36.539Z,94.20
2017-08-16T02:01:04.174Z,94.20
2017-08-16T02:03:33.971Z,94.00
2017-08-16T02:06:01.676Z,94.60
2017-08-16T02:08:29.307Z,94.50
2017-08-16T02:10:57.778Z,94.00
2017-08-16T02:13:25.545Z,93.90
2017-08-16T02:15:53.232Z,94.60
2017-08-16T02:18:20.966Z,94.30
2017-08-16T02:20:48.659Z,94.50
2017-08-16T02:23:17.080Z,94.20
2017-08-16T02:25:45.085Z,94.20
2017-08-16T02:28:13.176Z,93.50
2017-08-16T02:30:41.177Z,92.90
2017-08-16T02:33:09.249Z,93.00
2017-08-16T02:35:36.948Z,92.90
2017-08-16T02:38:04.630Z,92.60
2017-08-16T02:40:32.369Z,92.40
2017-08-16T02:43:00.051Z,92.50
2017-08-16T02:48:18.236Z,92.50
2017-08-16T02:50:45.889Z,92.40
2017-08-16T02:53:13.561Z,92.40
2017-08-16T02:55:41.234Z,92.00
2017-08-16T02:58:09.681Z,92.10
2017-08-16T03:00:37.366Z,92.40
2017-08-16T03:03:05.073Z,92.10
2017-08-16T03:05:32.784Z,91.80
2017-08-16T03:08:00.498Z,92.10
2017-08-16T03:10:28.267Z,92.40
2017-08-16T03:12:55.968Z,92.40
2017-08-16T03:15:24.427Z,92.10
2017-08-16T03:17:52.100Z,92.10
2017-08-16T03:20:19.881Z,91.90
2017-08-16T03:22:47.567Z,91.90
2017-08-16T03:25:15.289Z,94.50
2017-08-16T03:27:43.035Z,95.80
2017-08-16T03:30:10.741Z,94.80
2017-08-16T03:32:38.410Z,94.40
2017-08-16T03:35:06.148Z,92.70
2017-08-16T03:37:33.826Z,93.50
2017-08-16T03:40:01.498Z,93.70
2017-08-16T03:42:29.168Z,92.90
2017-08-16T03:44:56.812Z,92.10
2017-08-16T03:47:24.525Z,92.20
2017-08-16T03:49:52.302Z,91.80
2017-08-16T03:52:19.985Z,92.20
2017-08-16T03:54:47.642Z,92.50
2017-08-16T03:57:15.370Z,92.80
2017-08-16T03:59:43.011Z,92.20
2017-08-16T04:02:11.459Z,91.80
2017-08-16T04:04:39.159Z,91.80
2017-08-16T04:07:07.741Z,91.90
2017-08-16T04:09:35.441Z,91.90
2017-08-16T04:12:03.113Z,91.90
2017-08-16T04:14:30.807Z,92.00
2017-08-16T04:16:58.488Z,91.80
2017-08-16T04:19:26.199Z,91.50
2017-08-16T04:21:53.859Z,91.40
2017-08-16T04:24:21.734Z,91.90
2017-08-16T04:26:49.427Z,92.10
2017-08-16T04:29:17.103Z,91.80
2017-08-16T04:31:44.871Z,92.30
2017-08-16T04:34:12.616Z,92.60
2017-08-16T04:36:40.294Z,92.70
2017-08-16T04:39:08.024Z,92.20
2017-08-16T04:41:35.732Z,92.40
2017-08-16T04:44:03.416Z,92.50
2017-08-16T04:46:31.887Z,93.00
2017-08-16T04:49:00.425Z,93.40
2017-08-16T04:51:28.263Z,93.40
2017-08-16T04:53:55.948Z,93.10
2017-08-16T04:56:23.629Z,93.80
2017-08-16T04:58:51.321Z,94.00
2017-08-16T05:01:19.019Z,93.60
2017-08-16T05:03:46.757Z,93.40
2017-08-16T05:06:15.245Z,93.10
2017-08-16T05:08:43.001Z,93.10
2017-08-16T05:11:10.746Z,92.60
2017-08-16T05:13:38.498Z,93.20
2017-08-16T05:16:06.214Z,93.00
2017-08-16T05:18:33.942Z,92.60
2017-08-16T05:21:02.417Z,92.40
2017-08-16T05:23:30.319Z,92.40
2017-08-16T05:25:58.731Z,91.70
2017-08-16T05:28:26.417Z,91.80
2017-08-16T05:30:54.059Z,91.70
2017-08-16T05:33:22.044Z,91.80
2017-08-16T05:35:49.792Z,91.80
2017-08-16T05:38:17.474Z,92.10
2017-08-16T05:40:45.175Z,91.80
2017-08-16T05:43:12.830Z,91.80
2017-08-16T05:45:40.495Z,91.80
2017-08-16T05:48:08.140Z,91.90
2017-08-16T05:50:35.820Z,91.70
2017-08-16T05:53:04.234Z,91.60
2017-08-16T05:55:31.908Z,91.90
2017-08-16T05:57:59.573Z,91.60
2017-08-16T06:00:27.249Z,91.70
2017-08-16T06:02:54.916Z,91.90
2017-08-16T06:05:22.563Z,91.90
2017-08-16T06:07:50.227Z,91.60
2017-08-16T06:10:17.972Z,91.70
2017-08-16T06:12:45.592Z,91.80
2017-08-16T06:15:13.281Z,91.90
2017-08-16T06:17:41.695Z,92.30
2017-08-16T06:20:09.388Z,92.30
2017-08-16T06:22:37.044Z,92.30
2017-08-16T06:25:04.688Z,92.50
2017-08-16T06:27:32.339Z,91.60
2017-08-16T06:29:59.963Z,92.00
2017-08-16T06:32:27.568Z,92.00
2017-08-16T06:34:55.203Z,92.00
2017-08-16T06:37:22.821Z,91.60
2017-08-16T06:39:50.443Z,91.30
2017-08-16T06:42:18.131Z,91.10
2017-08-16T06:44:45.896Z,91.20
2017-08-16T06:47:13.492Z,90.70
2017-08-16T06:49:41.137Z,90.80
2017-08-16T06:52:08.774Z,90.60
2017-08-16T06:54:36.424Z,90.40
2017-08-16T06:57:04.084Z,90.30
2017-08-16T06:59:31.732Z,90.10
2017-08-16T07:01:59.368Z,90.20
2017-08-16T07:04:27.045Z,90.00
2017-08-16T07:06:54.652Z,90.80
2017-08-16T07:09:22.291Z,90.70
2017-08-16T07:11:49.939Z,90.80
2017-08-16T07:14:18.293Z,91.20
2017-08-16T07:16:45.908Z,91.20
2017-08-16T07:19:13.570Z,91.60
2017-08-16T07:21:41.196Z,91.70
2017-08-16T07:24:09.566Z,91.30
2017-08-16T07:26:37.234Z,91.50
2017-08-16T07:29:04.855Z,91.70
2017-08-16T07:31:32.698Z,91.50
2017-08-16T07:34:00.329Z,92.00
2017-08-16T07:36:28.707Z,92.00
2017-08-16T07:38:56.347Z,91.70
2017-08-16T07:41:24.024Z,91.90
2017-08-16T07:43:51.656Z,91.80
2017-08-16T07:46:19.322Z,91.70
2017-08-16T07:48:46.999Z,91.90
2017-08-16T07:51:14.608Z,92.10
2017-08-16T07:53:42.227Z,91.90
2017-08-16T07:56:09.922Z,91.50
2017-08-16T07:58:38.312Z,91.40
2017-08-16T08:01:05.904Z,91.40
2017-08-16T08:03:33.548Z,90.80
2017-08-16T08:06:01.211Z,91.10
2017-08-16T08:08:28.828Z,90.70
2017-08-16T08:10:56.440Z,90.60
2017-08-16T08:13:24.099Z,90.60
2017-08-16T08:15:51.718Z,90.00
2017-08-16T08:18:19.355Z,90.40
2017-08-16T08:20:47.062Z,90.20
2017-08-16T08:23:16.033Z,88.80
2017-08-16T08:25:44.424Z,90.30
2017-08-16T08:28:12.077Z,89.50
2017-08-16T08:30:39.732Z,87.80
2017-08-16T08:33:07.506Z,87.20
2017-08-16T08:35:37.125Z,86.30
2017-08-16T08:38:05.542Z,86.20
2017-08-16T08:40:42.469Z,86.90
2017-08-16T08:43:14.682Z,86.20
2017-08-16T08:45:45.541Z,84.90
2017-08-16T08:48:14.242Z,86.40
2017-08-16T08:50:42.917Z,85.00
2017-08-16T08:53:13.188Z,84.50
2017-08-16T08:55:42.723Z,83.90
2017-08-16T08:58:10.380Z,84.10
2017-08-16T09:00:39.747Z,81.70
2017-08-16T09:03:17.112Z,82.30
2017-08-16T09:05:52.130Z,80.80
2017-08-16T09:08:20.009Z,80.80
2017-08-16T09:10:48.324Z,80.60
2017-08-16T09:13:15.997Z,79.00
2017-08-16T09:15:47.260Z,79.30
2017-08-16T09:18:15.362Z,80.40
2017-08-16T09:23:27.791Z,79.70
2017-08-16T09:26:02.782Z,79.70
2017-08-16T09:28:31.112Z,81.10
2017-08-16T09:30:58.807Z,81.60
2017-08-16T09:33:32.856Z,82.80
2017-08-16T09:36:08.596Z,82.90
2017-08-16T09:38:40.804Z,84.90
2017-08-16T09:41:11.782Z,86.10
2017-08-16T09:43:39.565Z,89.30
2017-08-16T09:46:12.091Z,88.90
2017-08-16T09:48:52.716Z,88.70
2017-08-16T09:54:26.618Z,88.90
2017-08-16T09:57:14.693Z,90.60
2017-08-16T10:02:46.487Z,90.40
2017-08-16T10:08:24.935Z,88.60
2017-08-16T10:11:01.145Z,89.60
2017-08-16T10:17:02.487Z,86.10
2017-08-16T10:19:53.918Z,85.60
2017-08-16T10:22:39.923Z,84.50
2017-08-16T10:25:13.409Z,85.00
2017-08-16T10:27:54.364Z,82.60
2017-08-16T10:30:22.421Z,83.00
2017-08-16T10:33:05.543Z,81.20
2017-08-16T10:35:38.661Z,82.40
2017-08-16T10:40:40.785Z,79.50
2017-08-16T10:43:19.330Z,80.20
2017-08-16T10:45:49.927Z,82.20
2017-08-16T10:51:04.600Z,80.20
2017-08-16T10:56:25.374Z,81.10
2017-08-16T10:58:55.544Z,79.10
2017-08-16T11:01:23.376Z,79.30
2017-08-16T11:06:54.554Z,81.80
2017-08-16T11:09:29.351Z,82.70
2017-08-16T11:11:58.159Z,83.20
2017-08-16T11:14:25.873Z,82.50
2017-08-16T11:16:56.575Z,82.90
2017-08-16T11:22:56.997Z,81.80
2017-08-16T11:25:50.604Z,81.30
2017-08-16T11:28:28.561Z,81.40
2017-08-16T11:31:21.113Z,82.20
2017-08-16T11:37:59.775Z,81.70
2017-08-16T11:40:33.377Z,83.70
2017-08-16T11:43:11.183Z,83.20
2017-08-16T11:46:00.725Z,79.70
2017-08-16T11:48:32.842Z,80.40
2017-08-16T11:51:01.384Z,80.30
2017-08-16T11:56:19.648Z,80.50
2017-08-16T11:58:55.598Z,81.30
2017-08-16T12:01:23.279Z,81.10
2017-08-16T12:04:01.488Z,81.90
2017-08-16T12:06:29.333Z,83.60
2017-08-16T12:08:57.737Z,84.70
2017-08-16T12:14:14.718Z,82.90
2017-08-16T12:22:58.612Z,83.20
2017-08-16T12:25:27.278Z,81.90
2017-08-16T12:27:56.621Z,81.20
2017-08-16T12:33:19.147Z,81.30
2017-08-16T12:35:47.862Z,79.40
2017-08-16T12:38:16.147Z,79.70
2017-08-16T12:40:51.249Z,80.40
2017-08-16T12:43:35.544Z,80.60
2017-08-16T12:46:14.237Z,80.50
2017-08-16T12:48:42.854Z,79.00
2017-08-16T12:51:15.729Z,77.70
2017-08-16T12:53:50.249Z,77.00
2017-08-16T12:56:20.551Z,78.30
2017-08-16T12:59:06.210Z,77.40
2017-08-16T13:01:41.736Z,77.50
2017-08-16T13:04:10.541Z,76.30
2017-08-16T13:13:32.006Z,74.60
2017-08-16T13:24:57.150Z,77.10
2017-08-16T13:27:26.378Z,76.50
2017-08-16T13:33:10.602Z,75.40
2017-08-16T13:35:38.245Z,75.70
2017-08-16T13:44:40.504Z,74.40
2017-08-16T13:47:09.103Z,73.40
2017-08-16T13:49:48.388Z,75.20
2017-08-16T13:52:17.563Z,72.60
2017-08-16T13:54:52.208Z,71.70
2017-08-16T14:00:14.493Z,72.40
2017-08-16T14:09:10.054Z,69.00
2017-08-16T14:14:36.452Z,71.20
2017-08-16T14:17:05.669Z,70.00
2017-08-16T14:19:42.573Z,70.60
2017-08-16T14:25:22.881Z,68.10
2017-08-16T14:27:53.331Z,67.60
2017-08-16T14:30:25.016Z,68.10
2017-08-16T14:32:59.462Z,68.40
2017-08-16T14:35:28.684Z,69.50
2017-08-16T14:37:56.739Z,68.20
2017-08-16T14:40:46.814Z,66.60
2017-08-16T14:49:02.995Z,67.30
2017-08-16T14:51:34.234Z,65.30
2017-08-16T14:54:10.827Z,67.80
2017-08-16T14:56:39.170Z,66.30
2017-08-16T14:59:06.904Z,66.10
2017-08-16T15:01:47.849Z,67.70
2017-08-16T15:22:05.102Z,67.60
2017-08-16T15:27:42.676Z,68.70
2017-08-16T15:36:09.647Z,69.80
2017-08-16T15:41:34.295Z,72.10
2017-08-16T15:44:11.119Z,71.50
2017-08-16T15:49:51.052Z,72.70
2017-08-16T16:01:12.675Z,70.20
2017-08-16T16:06:39.211Z,69.60
2017-08-16T16:14:47.168Z,66.40
2017-08-16T16:23:02.487Z,67.90
2017-08-16T16:28:34.595Z,70.00
2017-08-16T16:33:58.261Z,70.90
2017-08-16T17:22:26.661Z,84.70
2017-08-16T17:31:03.461Z,85.40
2017-08-16T17:48:58.426Z,88.80
2017-08-16T18:58:19.370Z,93.50
2017-08-16T19:06:57.085Z,93.90
2017-08-16T19:12:22.811Z,94.00
2017-08-16T19:17:53.693Z,94.00
2017-08-16T19:23:08.981Z,94.70
2017-08-16T19:25:39.770Z,94.80
2017-08-16T19:28:27.665Z,95.00
2017-08-16T19:30:56.044Z,94.70
2017-08-16T19:33:31.672Z,94.80
2017-08-16T19:36:10.139Z,94.80
2017-08-16T19:42:03.752Z,94.70
2017-08-16T20:35:30.501Z,96.60
2017-08-16T20:37:58.167Z,96.60
2017-08-16T20:40:26.052Z,96.30
2017-08-16T20:42:54.279Z,96.20
2017-08-16T20:45:21.899Z,96.20
2017-08-16T20:47:49.613Z,95.80
2017-08-16T20:50:17.337Z,95.60
2017-08-16T20:52:44.973Z,95.30
2017-08-16T20:55:12.737Z,95.20
2017-08-16T20:57:40.443Z,95.40
2017-08-16T21:00:08.047Z,95.40
2017-08-16T21:02:35.645Z,95.70
2017-08-16T21:05:03.374Z,95.90
2017-08-16T21:07:31.014Z,95.90
2017-08-16T21:09:58.668Z,96.00
2017-08-16T21:12:26.326Z,96.10
2017-08-16T21:14:54.843Z,95.80
2017-08-16T21:17:22.815Z,95.70
2017-08-16T21:19:50.438Z,95.90
2017-08-16T21:22:18.103Z,95.80
2017-08-16T21:24:46.897Z,95.70
2017-08-16T21:27:14.760Z,95.80
2017-08-16T21:29:44.290Z,96.00
2017-08-16T21:32:12.024Z,96.40
2017-08-16T21:34:39.807Z,96.80
2017-08-16T21:37:07.817Z,96.70
2017-08-16T21:39:35.676Z,96.70
2017-08-16T21:42:03.359Z,96.30
2017-08-16T21:44:31.193Z,96.30
2017-08-16T21:46:59.191Z,96.20
2017-08-16T21:49:26.873Z,96.80
2017-08-16T21:51:55.515Z,97.40
2017-08-16T21:54:23.192Z,97.50
2017-08-16T21:56:51.862Z,97.10
2017-08-16T21:59:19.556Z,97.10
2017-08-16T22:01:47.234Z,97.20
2017-08-16T22:04:14.904Z,97.20
2017-08-16T22:06:42.623Z,97.20
2017-08-16T22:09:10.834Z,97.70
2017-08-16T22:11:40.274Z,97.60
2017-08-16T22:14:07.955Z,98.10
2017-08-16T22:16:35.555Z,98.20
2017-08-16T22:19:03.171Z,98.20
2017-08-16T22:21:31.950Z,98.00
2017-08-16T22:23:59.563Z,97.50
2017-08-16T22:26:27.188Z,97.30
2017-08-16T22:28:54.899Z,97.60
2017-08-16T22:31:22.516Z,97.50
2017-08-16T22:33:50.139Z,97.50
2017-08-16T22:36:17.804Z,97.40
2017-08-16T22:38:45.429Z,97.60
2017-08-16T22:41:13.075Z,97.40
2017-08-16T22:43:40.813Z,97.20
2017-08-16T22:46:08.559Z,96.90
2017-08-16T22:48:36.205Z,96.80
2017-08-16T22:51:03.894Z,96.80
2017-08-16T22:53:31.540Z,96.90
2017-08-16T22:55:59.180Z,97.30
2017-08-16T22:58:27.065Z,97.20
2017-08-16T23:00:54.732Z,97.10
2017-08-16T23:03:22.362Z,96.90
2017-08-16T23:05:49.996Z,97.00
2017-08-16T23:08:17.628Z,97.30
2017-08-16T23:10:45.263Z,96.70
2017-08-16T23:13:13.091Z,96.90
2017-08-16T23:15:40.747Z,96.90
2017-08-16T23:18:08.368Z,96.90
2017-08-16T23:20:36.012Z,96.70
2017-08-16T23:23:03.760Z,96.40
2017-08-16T23:25:31.444Z,96.30
2017-08-16T23:27:59.183Z,96.10
2017-08-16T23:30:26.851Z,96.00
2017-08-16T23:32:54.612Z,96.00
2017-08-16T23:35:22.324Z,96.10
2017-08-16T23:37:49.986Z,95.90
2017-08-16T23:40:17.644Z,95.50
2017-08-16T23:42:45.300Z,95.90
2017-08-16T23:45:13.053Z,96.10
2017-08-16T23:47:40.690Z,96.20
2017-08-16T23:50:08.342Z,96.20
2017-08-16T23:52:36.018Z,96.10
2017-08-16T23:55:03.749Z,95.90
2017-08-16T23:57:31.469Z,96.20
2017-08-16T23:59:59.109Z,96.20
